sensor_id;sensor_type;location;lat;lon;timestamp;temperature;humidity
30308;DHT22;17114;52.314;8.910;2022-08-01T00:00:18;18.70;99.90
30308;DHT22;17114;52.314;8.910;2022-08-01T00:02:45;18.70;99.90
30308;DHT22;17114;52.314;8.910;2022-08-01T00:05:12;18.70;99.90
30308;DHT22;17114;52.314;8.910;2022-08-01T00:07:40;18.70;99.90
30308;DHT22;17114;52.314;8.910;2022-08-01T00:10:09;18.70;99.90
30308;DHT22;17114;52.314;8.910;2022-08-01T00:12:37;18.70;99.90
30308;DHT22;17114;52.314;8.910;2022-08-01T00:15:05;18.70;99.90
30308;DHT22;17114;52.314;8.910;2022-08-01T00:17:33;18.70;99.90
30308;DHT22;17114;52.314;8.910;2022-08-01T00:20:00;18.70;99.90
30308;DHT22;17114;52.314;8.910;2022-08-01T00:22:33;18.70;99.90
30308;DHT22;17114;52.314;8.910;2022-08-01T00:25:01;18.70;99.90
30308;DHT22;17114;52.314;8.910;2022-08-01T00:27:27;18.60;99.90
30308;DHT22;17114;52.314;8.910;2022-08-01T00:29:54;18.70;99.90
30308;DHT22;17114;52.314;8.910;2022-08-01T00:32:41;18.70;99.90
30308;DHT22;17114;52.314;8.910;2022-08-01T00:35:08;18.60;99.90
30308;DHT22;17114;52.314;8.910;2022-08-01T00:37:35;18.60;99.90
30308;DHT22;17114;52.314;8.910;2022-08-01T00:40:02;18.60;99.90
30308;DHT22;17114;52.314;8.910;2022-08-01T00:42:29;18.60;99.90
30308;DHT22;17114;52.314;8.910;2022-08-01T00:44:56;18.60;99.90
30308;DHT22;17114;52.314;8.910;2022-08-01T00:47:23;18.60;99.90
30308;DHT22;17114;52.314;8.910;2022-08-01T00:49:50;18.50;99.90
30308;DHT22;17114;52.314;8.910;2022-08-01T00:52:17;18.50;99.90
30308;DHT22;17114;52.314;8.910;2022-08-01T00:54:44;18.50;99.90
30308;DHT22;17114;52.314;8.910;2022-08-01T00:57:11;18.50;99.90
30308;DHT22;17114;52.314;8.910;2022-08-01T00:59:40;18.50;99.90
30308;DHT22;17114;52.314;8.910;2022-08-01T01:02:08;18.50;99.90
30308;DHT22;17114;52.314;8.910;2022-08-01T01:04:42;18.50;99.90
30308;DHT22;17114;52.314;8.910;2022-08-01T01:07:45;18.50;99.90
30308;DHT22;17114;52.314;8.910;2022-08-01T01:10:21;18.50;99.90
30308;DHT22;17114;52.314;8.910;2022-08-01T01:15:30;18.50;99.90
30308;DHT22;17114;52.314;8.910;2022-08-01T01:20:34;18.50;99.90
30308;DHT22;17114;52.314;8.910;2022-08-01T01:29:00;18.40;99.90
30308;DHT22;17114;52.314;8.910;2022-08-01T01:31:28;18.30;99.90
30308;DHT22;17114;52.314;8.910;2022-08-01T01:33:58;18.40;99.90
30308;DHT22;17114;52.314;8.910;2022-08-01T01:36:26;18.40;99.90
30308;DHT22;17114;52.314;8.910;2022-08-01T01:38:55;18.30;99.90
30308;DHT22;17114;52.314;8.910;2022-08-01T01:41:23;18.30;99.90
30308;DHT22;17114;52.314;8.910;2022-08-01T01:43:51;18.30;99.90
30308;DHT22;17114;52.314;8.910;2022-08-01T01:46:24;18.30;99.90
30308;DHT22;17114;52.314;8.910;2022-08-01T01:48:55;18.30;99.90
30308;DHT22;17114;52.314;8.910;2022-08-01T01:51:25;18.20;99.90
30308;DHT22;17114;52.314;8.910;2022-08-01T01:53:54;18.30;99.90
30308;DHT22;17114;52.314;8.910;2022-08-01T01:56:22;18.30;99.90
30308;DHT22;17114;52.314;8.910;2022-08-01T01:58:54;18.30;99.90
30308;DHT22;17114;52.314;8.910;2022-08-01T02:01:28;18.30;99.90
30308;DHT22;17114;52.314;8.910;2022-08-01T02:04:16;18.20;99.90
30308;DHT22;17114;52.314;8.910;2022-08-01T02:06:46;18.20;99.90
30308;DHT22;17114;52.314;8.910;2022-08-01T02:09:18;18.20;99.90
30308;DHT22;17114;52.314;8.910;2022-08-01T02:11:47;18.20;99.90
30308;DHT22;17114;52.314;8.910;2022-08-01T02:14:35;18.20;99.90
30308;DHT22;17114;52.314;8.910;2022-08-01T02:17:03;18.20;99.90
30308;DHT22;17114;52.314;8.910;2022-08-01T02:19:32;18.20;99.90
30308;DHT22;17114;52.314;8.910;2022-08-01T02:22:32;18.20;99.90
30308;DHT22;17114;52.314;8.910;2022-08-01T02:25:53;18.10;99.90
30308;DHT22;17114;52.314;8.910;2022-08-01T02:28:38;18.10;99.90
30308;DHT22;17114;52.314;8.910;2022-08-01T02:31:12;18.20;99.90
30308;DHT22;17114;52.314;8.910;2022-08-01T02:33:45;18.20;99.90
30308;DHT22;17114;52.314;8.910;2022-08-01T02:36:13;18.20;99.90
30308;DHT22;17114;52.314;8.910;2022-08-01T02:39:00;18.10;99.90
30308;DHT22;17114;52.314;8.910;2022-08-01T02:41:28;18.10;99.90
30308;DHT22;17114;52.314;8.910;2022-08-01T02:44:00;18.10;99.90
30308;DHT22;17114;52.314;8.910;2022-08-01T02:46:38;18.10;99.90
30308;DHT22;17114;52.314;8.910;2022-08-01T02:49:08;18.10;99.90
30308;DHT22;17114;52.314;8.910;2022-08-01T02:51:36;18.10;99.90
30308;DHT22;17114;52.314;8.910;2022-08-01T02:54:07;18.20;99.90
30308;DHT22;17114;52.314;8.910;2022-08-01T02:56:35;18.20;99.90
30308;DHT22;17114;52.314;8.910;2022-08-01T02:59:09;18.10;99.90
30308;DHT22;17114;52.314;8.910;2022-08-01T03:01:41;18.10;99.90
30308;DHT22;17114;52.314;8.910;2022-08-01T03:04:10;18.10;99.90
30308;DHT22;17114;52.314;8.910;2022-08-01T03:06:38;18.10;99.90
30308;DHT22;17114;52.314;8.910;2022-08-01T03:09:11;18.10;99.90
30308;DHT22;17114;52.314;8.910;2022-08-01T03:11:43;18.10;99.90
30308;DHT22;17114;52.314;8.910;2022-08-01T03:14:11;18.10;99.90
30308;DHT22;17114;52.314;8.910;2022-08-01T03:16:40;18.10;99.90
30308;DHT22;17114;52.314;8.910;2022-08-01T03:19:10;18.00;99.90
30308;DHT22;17114;52.314;8.910;2022-08-01T03:21:39;18.00;99.90
30308;DHT22;17114;52.314;8.910;2022-08-01T03:24:08;18.00;99.90
30308;DHT22;17114;52.314;8.910;2022-08-01T03:26:36;18.00;99.90
30308;DHT22;17114;52.314;8.910;2022-08-01T03:29:08;18.00;99.90
30308;DHT22;17114;52.314;8.910;2022-08-01T03:31:37;18.00;99.90
30308;DHT22;17114;52.314;8.910;2022-08-01T03:34:05;18.00;99.90
30308;DHT22;17114;52.314;8.910;2022-08-01T03:36:33;18.00;99.90
30308;DHT22;17114;52.314;8.910;2022-08-01T03:39:03;18.00;99.90
30308;DHT22;17114;52.314;8.910;2022-08-01T03:41:36;18.00;99.90
30308;DHT22;17114;52.314;8.910;2022-08-01T03:44:09;18.00;99.90
30308;DHT22;17114;52.314;8.910;2022-08-01T03:46:43;17.90;99.90
30308;DHT22;17114;52.314;8.910;2022-08-01T03:49:14;17.90;99.90
30308;DHT22;17114;52.314;8.910;2022-08-01T03:51:45;17.90;99.90
30308;DHT22;17114;52.314;8.910;2022-08-01T03:54:12;17.90;99.90
30308;DHT22;17114;52.314;8.910;2022-08-01T03:56:41;17.90;99.90
30308;DHT22;17114;52.314;8.910;2022-08-01T03:59:09;17.90;99.90
30308;DHT22;17114;52.314;8.910;2022-08-01T04:01:37;17.90;99.90
30308;DHT22;17114;52.314;8.910;2022-08-01T04:04:04;17.90;99.90
30308;DHT22;17114;52.314;8.910;2022-08-01T04:06:32;17.90;99.90
30308;DHT22;17114;52.314;8.910;2022-08-01T04:08:59;17.90;99.90
30308;DHT22;17114;52.314;8.910;2022-08-01T04:11:27;17.90;99.90
30308;DHT22;17114;52.314;8.910;2022-08-01T04:13:55;17.90;99.90
30308;DHT22;17114;52.314;8.910;2022-08-01T04:16:23;17.90;99.90
30308;DHT22;17114;52.314;8.910;2022-08-01T04:18:51;17.90;99.90
30308;DHT22;17114;52.314;8.910;2022-08-01T04:21:20;17.90;99.90
30308;DHT22;17114;52.314;8.910;2022-08-01T04:23:50;18.00;99.90
30308;DHT22;17114;52.314;8.910;2022-08-01T04:26:20;18.00;99.90
30308;DHT22;17114;52.314;8.910;2022-08-01T04:28:48;18.00;99.90
30308;DHT22;17114;52.314;8.910;2022-08-01T04:31:18;18.00;99.90
30308;DHT22;17114;52.314;8.910;2022-08-01T04:33:49;18.00;99.90
30308;DHT22;17114;52.314;8.910;2022-08-01T04:36:19;18.00;99.90
30308;DHT22;17114;52.314;8.910;2022-08-01T04:38:52;18.00;99.90
30308;DHT22;17114;52.314;8.910;2022-08-01T04:41:20;18.00;99.90
30308;DHT22;17114;52.314;8.910;2022-08-01T04:43:48;18.00;99.90
30308;DHT22;17114;52.314;8.910;2022-08-01T04:46:15;18.00;99.90
30308;DHT22;17114;52.314;8.910;2022-08-01T04:48:44;18.00;99.90
30308;DHT22;17114;52.314;8.910;2022-08-01T04:51:16;18.00;99.90
30308;DHT22;17114;52.314;8.910;2022-08-01T04:53:44;18.10;99.90
30308;DHT22;17114;52.314;8.910;2022-08-01T04:56:13;18.00;99.90
30308;DHT22;17114;52.314;8.910;2022-08-01T04:58:43;18.10;99.90
30308;DHT22;17114;52.314;8.910;2022-08-01T05:01:11;18.10;99.90
30308;DHT22;17114;52.314;8.910;2022-08-01T05:03:38;18.00;99.90
30308;DHT22;17114;52.314;8.910;2022-08-01T05:06:05;18.00;99.90
30308;DHT22;17114;52.314;8.910;2022-08-01T05:08:32;18.00;99.90
30308;DHT22;17114;52.314;8.910;2022-08-01T05:10:59;18.00;99.90
30308;DHT22;17114;52.314;8.910;2022-08-01T05:13:27;18.00;99.90
30308;DHT22;17114;52.314;8.910;2022-08-01T05:15:54;18.00;99.90
30308;DHT22;17114;52.314;8.910;2022-08-01T05:18:22;18.10;99.90
30308;DHT22;17114;52.314;8.910;2022-08-01T05:20:54;18.10;99.90
30308;DHT22;17114;52.314;8.910;2022-08-01T05:23:21;18.20;99.90
30308;DHT22;17114;52.314;8.910;2022-08-01T05:26:08;18.20;99.90
30308;DHT22;17114;52.314;8.910;2022-08-01T05:28:36;18.30;99.90
30308;DHT22;17114;52.314;8.910;2022-08-01T05:31:03;18.30;99.90
30308;DHT22;17114;52.314;8.910;2022-08-01T05:33:30;18.40;99.90
30308;DHT22;17114;52.314;8.910;2022-08-01T05:35:57;18.50;99.90
30308;DHT22;17114;52.314;8.910;2022-08-01T05:38:24;18.60;99.90
30308;DHT22;17114;52.314;8.910;2022-08-01T05:40:51;18.70;99.90
30308;DHT22;17114;52.314;8.910;2022-08-01T05:43:18;18.80;99.90
30308;DHT22;17114;52.314;8.910;2022-08-01T05:45:45;18.80;99.90
30308;DHT22;17114;52.314;8.910;2022-08-01T05:48:14;18.90;99.90
30308;DHT22;17114;52.314;8.910;2022-08-01T05:50:41;18.90;99.90
30308;DHT22;17114;52.314;8.910;2022-08-01T05:53:08;18.90;99.90
30308;DHT22;17114;52.314;8.910;2022-08-01T05:55:38;18.90;99.90
30308;DHT22;17114;52.314;8.910;2022-08-01T05:58:05;18.90;99.90
30308;DHT22;17114;52.314;8.910;2022-08-01T06:00:32;18.90;99.90
30308;DHT22;17114;52.314;8.910;2022-08-01T06:02:58;18.90;99.90
30308;DHT22;17114;52.314;8.910;2022-08-01T06:05:25;18.80;99.90
30308;DHT22;17114;52.314;8.910;2022-08-01T06:07:52;18.80;99.90
30308;DHT22;17114;52.314;8.910;2022-08-01T06:10:19;18.70;99.90
30308;DHT22;17114;52.314;8.910;2022-08-01T06:12:46;18.60;99.90
30308;DHT22;17114;52.314;8.910;2022-08-01T06:15:13;18.50;99.90
30308;DHT22;17114;52.314;8.910;2022-08-01T06:17:40;18.30;99.90
30308;DHT22;17114;52.314;8.910;2022-08-01T06:20:08;18.10;99.90
30308;DHT22;17114;52.314;8.910;2022-08-01T06:22:35;17.90;99.90
30308;DHT22;17114;52.314;8.910;2022-08-01T06:25:04;17.90;99.90
30308;DHT22;17114;52.314;8.910;2022-08-01T06:27:34;17.80;99.90
30308;DHT22;17114;52.314;8.910;2022-08-01T06:30:03;17.80;99.90
30308;DHT22;17114;52.314;8.910;2022-08-01T06:32:30;17.80;99.90
30308;DHT22;17114;52.314;8.910;2022-08-01T06:34:57;17.80;99.90
30308;DHT22;17114;52.314;8.910;2022-08-01T06:37:31;17.90;99.90
30308;DHT22;17114;52.314;8.910;2022-08-01T06:40:07;18.00;99.90
30308;DHT22;17114;52.314;8.910;2022-08-01T06:42:40;18.00;99.90
30308;DHT22;17114;52.314;8.910;2022-08-01T06:45:09;18.10;99.90
30308;DHT22;17114;52.314;8.910;2022-08-01T06:47:38;18.20;99.90
30308;DHT22;17114;52.314;8.910;2022-08-01T06:50:06;18.30;99.90
30308;DHT22;17114;52.314;8.910;2022-08-01T06:52:36;18.40;99.90
30308;DHT22;17114;52.314;8.910;2022-08-01T06:55:04;18.50;99.90
30308;DHT22;17114;52.314;8.910;2022-08-01T06:57:31;18.60;99.90
30308;DHT22;17114;52.314;8.910;2022-08-01T07:00:04;18.70;99.90
30308;DHT22;17114;52.314;8.910;2022-08-01T07:02:37;18.80;99.90
30308;DHT22;17114;52.314;8.910;2022-08-01T07:05:04;18.80;99.90
30308;DHT22;17114;52.314;8.910;2022-08-01T07:07:31;18.70;99.90
30308;DHT22;17114;52.314;8.910;2022-08-01T07:09:58;18.60;99.90
30308;DHT22;17114;52.314;8.910;2022-08-01T07:12:25;18.60;99.90
30308;DHT22;17114;52.314;8.910;2022-08-01T07:14:52;18.60;99.90
30308;DHT22;17114;52.314;8.910;2022-08-01T07:17:19;18.50;99.90
30308;DHT22;17114;52.314;8.910;2022-08-01T07:19:47;18.60;99.90
30308;DHT22;17114;52.314;8.910;2022-08-01T07:22:14;18.60;99.90
30308;DHT22;17114;52.314;8.910;2022-08-01T07:24:49;18.60;99.90
30308;DHT22;17114;52.314;8.910;2022-08-01T07:27:20;18.80;99.90
30308;DHT22;17114;52.314;8.910;2022-08-01T07:29:51;18.90;99.90
30308;DHT22;17114;52.314;8.910;2022-08-01T07:32:19;19.00;99.90
30308;DHT22;17114;52.314;8.910;2022-08-01T07:34:46;19.10;99.90
30308;DHT22;17114;52.314;8.910;2022-08-01T07:37:13;19.00;99.90
30308;DHT22;17114;52.314;8.910;2022-08-01T07:39:40;19.00;99.90
30308;DHT22;17114;52.314;8.910;2022-08-01T07:42:07;19.00;99.90
30308;DHT22;17114;52.314;8.910;2022-08-01T07:44:35;19.00;99.90
30308;DHT22;17114;52.314;8.910;2022-08-01T07:47:02;19.20;99.90
30308;DHT22;17114;52.314;8.910;2022-08-01T07:49:29;19.30;99.90
30308;DHT22;17114;52.314;8.910;2022-08-01T07:51:58;19.40;99.90
30308;DHT22;17114;52.314;8.910;2022-08-01T07:54:39;19.60;99.90
30308;DHT22;17114;52.314;8.910;2022-08-01T07:57:06;19.80;99.90
30308;DHT22;17114;52.314;8.910;2022-08-01T07:59:34;19.90;99.90
30308;DHT22;17114;52.314;8.910;2022-08-01T08:02:01;20.20;99.90
30308;DHT22;17114;52.314;8.910;2022-08-01T08:04:28;20.70;99.90
30308;DHT22;17114;52.314;8.910;2022-08-01T08:06:55;21.30;99.90
30308;DHT22;17114;52.314;8.910;2022-08-01T08:09:22;22.00;99.90
30308;DHT22;17114;52.314;8.910;2022-08-01T08:11:49;22.40;99.90
30308;DHT22;17114;52.314;8.910;2022-08-01T08:14:17;22.30;99.90
30308;DHT22;17114;52.314;8.910;2022-08-01T08:16:44;22.20;99.90
30308;DHT22;17114;52.314;8.910;2022-08-01T08:19:12;22.40;99.90
30308;DHT22;17114;52.314;8.910;2022-08-01T08:21:39;22.70;99.90
30308;DHT22;17114;52.314;8.910;2022-08-01T08:24:07;23.10;99.90
30308;DHT22;17114;52.314;8.910;2022-08-01T08:26:59;23.40;99.90
30308;DHT22;17114;52.314;8.910;2022-08-01T08:29:29;23.00;99.90
30308;DHT22;17114;52.314;8.910;2022-08-01T08:31:59;22.70;99.90
30308;DHT22;17114;52.314;8.910;2022-08-01T08:34:27;22.30;99.90
30308;DHT22;17114;52.314;8.910;2022-08-01T08:36:55;22.00;99.90
30308;DHT22;17114;52.314;8.910;2022-08-01T08:39:25;21.80;99.90
30308;DHT22;17114;52.314;8.910;2022-08-01T08:41:53;21.50;99.90
30308;DHT22;17114;52.314;8.910;2022-08-01T08:44:20;21.40;99.90
30308;DHT22;17114;52.314;8.910;2022-08-01T08:46:49;21.20;99.90
30308;DHT22;17114;52.314;8.910;2022-08-01T08:49:19;20.90;99.90
30308;DHT22;17114;52.314;8.910;2022-08-01T08:51:51;20.70;99.90
30308;DHT22;17114;52.314;8.910;2022-08-01T08:54:21;20.70;99.90
30308;DHT22;17114;52.314;8.910;2022-08-01T08:56:59;20.60;99.90
30308;DHT22;17114;52.314;8.910;2022-08-01T08:59:26;20.70;99.90
30308;DHT22;17114;52.314;8.910;2022-08-01T09:01:55;20.80;99.90
30308;DHT22;17114;52.314;8.910;2022-08-01T09:04:22;20.80;99.90
30308;DHT22;17114;52.314;8.910;2022-08-01T09:06:52;21.10;99.90
30308;DHT22;17114;52.314;8.910;2022-08-01T09:09:20;21.30;99.90
30308;DHT22;17114;52.314;8.910;2022-08-01T09:11:47;21.30;99.90
30308;DHT22;17114;52.314;8.910;2022-08-01T09:14:25;21.30;99.90
30308;DHT22;17114;52.314;8.910;2022-08-01T09:17:07;21.10;99.90
30308;DHT22;17114;52.314;8.910;2022-08-01T09:19:48;20.80;99.90
30308;DHT22;17114;52.314;8.910;2022-08-01T09:22:17;20.80;99.90
30308;DHT22;17114;52.314;8.910;2022-08-01T09:25:04;20.80;99.90
30308;DHT22;17114;52.314;8.910;2022-08-01T09:27:32;20.90;99.90
30308;DHT22;17114;52.314;8.910;2022-08-01T09:30:15;21.00;99.90
30308;DHT22;17114;52.314;8.910;2022-08-01T09:35:25;21.50;99.90
30308;DHT22;17114;52.314;8.910;2022-08-01T09:43:16;22.40;99.90
30308;DHT22;17114;52.314;8.910;2022-08-01T09:45:44;22.60;99.90
30308;DHT22;17114;52.314;8.910;2022-08-01T09:48:19;22.60;99.90
30308;DHT22;17114;52.314;8.910;2022-08-01T09:50:53;22.70;99.90
30308;DHT22;17114;52.314;8.910;2022-08-01T09:53:21;22.50;99.90
30308;DHT22;17114;52.314;8.910;2022-08-01T09:56:07;22.30;99.90
30308;DHT22;17114;52.314;8.910;2022-08-01T09:58:49;22.00;99.90
30308;DHT22;17114;52.314;8.910;2022-08-01T10:01:24;21.80;99.90
30308;DHT22;17114;52.314;8.910;2022-08-01T10:04:16;21.40;99.90
30308;DHT22;17114;52.314;8.910;2022-08-01T10:06:46;21.20;99.90
30308;DHT22;17114;52.314;8.910;2022-08-01T10:09:30;21.40;99.90
30308;DHT22;17114;52.314;8.910;2022-08-01T10:12:07;21.70;99.90
30308;DHT22;17114;52.314;8.910;2022-08-01T10:14:36;22.20;99.90
30308;DHT22;17114;52.314;8.910;2022-08-01T10:17:15;22.40;99.90
30308;DHT22;17114;52.314;8.910;2022-08-01T10:19:44;22.50;99.90
30308;DHT22;17114;52.314;8.910;2022-08-01T10:22:13;22.50;99.90
30308;DHT22;17114;52.314;8.910;2022-08-01T10:24:45;22.70;99.90
30308;DHT22;17114;52.314;8.910;2022-08-01T10:27:15;22.80;99.90
30308;DHT22;17114;52.314;8.910;2022-08-01T10:30:04;22.50;99.90
30308;DHT22;17114;52.314;8.910;2022-08-01T10:32:48;21.90;99.90
30308;DHT22;17114;52.314;8.910;2022-08-01T10:35:17;21.40;99.90
30308;DHT22;17114;52.314;8.910;2022-08-01T10:38:05;21.20;99.90
30308;DHT22;17114;52.314;8.910;2022-08-01T10:40:40;21.20;99.90
30308;DHT22;17114;52.314;8.910;2022-08-01T10:43:12;21.40;99.90
30308;DHT22;17114;52.314;8.910;2022-08-01T10:45:47;21.70;99.90
30308;DHT22;17114;52.314;8.910;2022-08-01T10:48:29;21.90;99.90
30308;DHT22;17114;52.314;8.910;2022-08-01T10:51:00;22.10;99.90
30308;DHT22;17114;52.314;8.910;2022-08-01T10:53:28;22.50;99.90
30308;DHT22;17114;52.314;8.910;2022-08-01T10:56:08;22.40;99.90
30308;DHT22;17114;52.314;8.910;2022-08-01T10:58:43;22.20;99.90
30308;DHT22;17114;52.314;8.910;2022-08-01T11:01:21;22.10;99.90
30308;DHT22;17114;52.314;8.910;2022-08-01T11:12:09;22.20;99.90
30308;DHT22;17114;52.314;8.910;2022-08-01T11:28:27;21.80;99.90
30308;DHT22;17114;52.314;8.910;2022-08-01T11:38:44;23.10;99.90
30308;DHT22;17114;52.314;8.910;2022-08-01T11:57:31;23.40;99.90
30308;DHT22;17114;52.314;8.910;2022-08-01T12:00:09;23.60;99.90
30308;DHT22;17114;52.314;8.910;2022-08-01T12:02:41;23.70;99.90
30308;DHT22;17114;52.314;8.910;2022-08-01T12:05:12;23.40;99.90
30308;DHT22;17114;52.314;8.910;2022-08-01T12:07:43;23.30;99.90
30308;DHT22;17114;52.314;8.910;2022-08-01T12:10:15;23.00;99.90
30308;DHT22;17114;52.314;8.910;2022-08-01T12:12:53;22.80;99.90
30308;DHT22;17114;52.314;8.910;2022-08-01T12:15:23;22.80;99.90
30308;DHT22;17114;52.314;8.910;2022-08-01T12:17:56;22.80;99.90
30308;DHT22;17114;52.314;8.910;2022-08-01T12:20:45;22.90;99.90
30308;DHT22;17114;52.314;8.910;2022-08-01T12:23:22;23.00;99.90
30308;DHT22;17114;52.314;8.910;2022-08-01T12:25:52;23.00;99.90
30308;DHT22;17114;52.314;8.910;2022-08-01T12:28:20;22.80;99.90
30308;DHT22;17114;52.314;8.910;2022-08-01T12:30:48;22.80;99.90
30308;DHT22;17114;52.314;8.910;2022-08-01T12:33:18;22.80;99.90
30308;DHT22;17114;52.314;8.910;2022-08-01T12:35:46;23.00;99.90
30308;DHT22;17114;52.314;8.910;2022-08-01T12:38:21;23.00;99.90
30308;DHT22;17114;52.314;8.910;2022-08-01T12:40:56;23.10;99.90
30308;DHT22;17114;52.314;8.910;2022-08-01T12:43:23;23.10;99.90
30308;DHT22;17114;52.314;8.910;2022-08-01T12:45:55;23.20;99.90
30308;DHT22;17114;52.314;8.910;2022-08-01T12:48:24;23.40;99.90
30308;DHT22;17114;52.314;8.910;2022-08-01T12:50:52;23.70;99.90
30308;DHT22;17114;52.314;8.910;2022-08-01T12:53:20;24.10;99.90
30308;DHT22;17114;52.314;8.910;2022-08-01T12:55:50;24.10;99.90
30308;DHT22;17114;52.314;8.910;2022-08-01T12:58:31;24.20;99.90
30308;DHT22;17114;52.314;8.910;2022-08-01T13:01:10;24.20;99.90
30308;DHT22;17114;52.314;8.910;2022-08-01T13:03:38;24.30;99.90
30308;DHT22;17114;52.314;8.910;2022-08-01T13:06:13;24.20;99.90
30308;DHT22;17114;52.314;8.910;2022-08-01T13:08:42;24.10;99.90
30308;DHT22;17114;52.314;8.910;2022-08-01T13:11:11;24.10;99.90
30308;DHT22;17114;52.314;8.910;2022-08-01T13:13:50;24.10;99.90
30308;DHT22;17114;52.314;8.910;2022-08-01T13:16:19;24.10;99.90
30308;DHT22;17114;52.314;8.910;2022-08-01T13:19:04;24.10;99.90
30308;DHT22;17114;52.314;8.910;2022-08-01T13:21:32;24.20;99.90
30308;DHT22;17114;52.314;8.910;2022-08-01T13:24:27;24.20;99.90
30308;DHT22;17114;52.314;8.910;2022-08-01T13:27:01;24.30;99.90
30308;DHT22;17114;52.314;8.910;2022-08-01T13:29:31;24.10;99.90
30308;DHT22;17114;52.314;8.910;2022-08-01T13:32:00;24.00;99.90
30308;DHT22;17114;52.314;8.910;2022-08-01T13:34:34;23.90;99.90
30308;DHT22;17114;52.314;8.910;2022-08-01T13:37:01;23.90;99.90
30308;DHT22;17114;52.314;8.910;2022-08-01T13:39:29;23.90;99.90
30308;DHT22;17114;52.314;8.910;2022-08-01T13:42:15;23.80;99.90
30308;DHT22;17114;52.314;8.910;2022-08-01T13:44:45;23.90;99.90
30308;DHT22;17114;52.314;8.910;2022-08-01T13:47:12;23.80;99.90
30308;DHT22;17114;52.314;8.910;2022-08-01T13:49:41;23.70;99.90
30308;DHT22;17114;52.314;8.910;2022-08-01T13:52:08;23.40;99.90
30308;DHT22;17114;52.314;8.910;2022-08-01T13:54:35;23.30;99.90
30308;DHT22;17114;52.314;8.910;2022-08-01T13:57:03;23.10;99.90
30308;DHT22;17114;52.314;8.910;2022-08-01T13:59:30;23.00;99.90
30308;DHT22;17114;52.314;8.910;2022-08-01T14:01:57;22.90;99.90
30308;DHT22;17114;52.314;8.910;2022-08-01T14:04:24;23.00;99.90
30308;DHT22;17114;52.314;8.910;2022-08-01T14:06:51;23.00;99.90
30308;DHT22;17114;52.314;8.910;2022-08-01T14:09:18;23.00;99.90
30308;DHT22;17114;52.314;8.910;2022-08-01T14:11:50;23.10;99.90
30308;DHT22;17114;52.314;8.910;2022-08-01T14:14:17;23.00;99.90
30308;DHT22;17114;52.314;8.910;2022-08-01T14:16:43;23.10;99.90
30308;DHT22;17114;52.314;8.910;2022-08-01T14:19:15;23.00;99.90
30308;DHT22;17114;52.314;8.910;2022-08-01T14:22:02;23.10;99.90
30308;DHT22;17114;52.314;8.910;2022-08-01T14:24:29;23.30;99.90
30308;DHT22;17114;52.314;8.910;2022-08-01T14:26:56;23.50;99.90
30308;DHT22;17114;52.314;8.910;2022-08-01T14:29:23;23.50;99.90
30308;DHT22;17114;52.314;8.910;2022-08-01T14:32:10;23.60;99.90
30308;DHT22;17114;52.314;8.910;2022-08-01T14:34:37;23.30;99.90
30308;DHT22;17114;52.314;8.910;2022-08-01T14:37:04;23.20;99.90
30308;DHT22;17114;52.314;8.910;2022-08-01T14:39:30;23.20;99.90
30308;DHT22;17114;52.314;8.910;2022-08-01T14:41:58;23.10;99.90
30308;DHT22;17114;52.314;8.910;2022-08-01T14:44:25;23.10;99.90
30308;DHT22;17114;52.314;8.910;2022-08-01T14:46:58;23.20;99.90
30308;DHT22;17114;52.314;8.910;2022-08-01T14:49:26;23.20;99.90
30308;DHT22;17114;52.314;8.910;2022-08-01T14:51:53;23.20;99.90
30308;DHT22;17114;52.314;8.910;2022-08-01T14:54:20;23.30;99.90
30308;DHT22;17114;52.314;8.910;2022-08-01T14:56:55;23.40;99.90
30308;DHT22;17114;52.314;8.910;2022-08-01T14:59:21;23.40;99.90
30308;DHT22;17114;52.314;8.910;2022-08-01T15:01:51;23.50;99.90
30308;DHT22;17114;52.314;8.910;2022-08-01T15:04:19;23.70;99.90
30308;DHT22;17114;52.314;8.910;2022-08-01T15:06:46;23.70;99.90
30308;DHT22;17114;52.314;8.910;2022-08-01T15:09:13;23.90;99.90
30308;DHT22;17114;52.314;8.910;2022-08-01T15:11:40;23.90;99.90
30308;DHT22;17114;52.314;8.910;2022-08-01T15:14:06;23.90;99.90
30308;DHT22;17114;52.314;8.910;2022-08-01T15:16:52;23.80;99.90
30308;DHT22;17114;52.314;8.910;2022-08-01T15:19:19;23.80;99.90
30308;DHT22;17114;52.314;8.910;2022-08-01T15:21:45;23.90;99.90
30308;DHT22;17114;52.314;8.910;2022-08-01T15:24:12;23.90;99.90
30308;DHT22;17114;52.314;8.910;2022-08-01T15:26:39;23.90;99.90
30308;DHT22;17114;52.314;8.910;2022-08-01T15:29:06;23.60;99.90
30308;DHT22;17114;52.314;8.910;2022-08-01T15:31:35;23.40;99.90
30308;DHT22;17114;52.314;8.910;2022-08-01T15:34:04;23.20;99.90
30308;DHT22;17114;52.314;8.910;2022-08-01T15:36:31;23.10;99.90
30308;DHT22;17114;52.314;8.910;2022-08-01T15:38:58;23.00;99.90
30308;DHT22;17114;52.314;8.910;2022-08-01T15:41:25;23.10;99.90
30308;DHT22;17114;52.314;8.910;2022-08-01T15:43:52;23.00;99.90
30308;DHT22;17114;52.314;8.910;2022-08-01T15:46:22;22.90;99.90
30308;DHT22;17114;52.314;8.910;2022-08-01T15:48:49;22.90;99.90
30308;DHT22;17114;52.314;8.910;2022-08-01T15:51:16;22.90;99.90
30308;DHT22;17114;52.314;8.910;2022-08-01T15:53:43;22.70;99.90
30308;DHT22;17114;52.314;8.910;2022-08-01T15:56:10;22.70;99.90
30308;DHT22;17114;52.314;8.910;2022-08-01T15:58:38;22.60;99.90
30308;DHT22;17114;52.314;8.910;2022-08-01T16:01:05;22.60;99.90
30308;DHT22;17114;52.314;8.910;2022-08-01T16:03:31;22.50;99.90
30308;DHT22;17114;52.314;8.910;2022-08-01T16:05:58;22.40;99.90
30308;DHT22;17114;52.314;8.910;2022-08-01T16:08:25;22.30;99.90
30308;DHT22;17114;52.314;8.910;2022-08-01T16:10:52;22.40;99.90
30308;DHT22;17114;52.314;8.910;2022-08-01T16:13:19;22.40;99.90
30308;DHT22;17114;52.314;8.910;2022-08-01T16:15:46;22.40;99.90
30308;DHT22;17114;52.314;8.910;2022-08-01T16:18:13;22.50;99.90
30308;DHT22;17114;52.314;8.910;2022-08-01T16:20:42;22.50;99.90
30308;DHT22;17114;52.314;8.910;2022-08-01T16:23:13;22.70;99.90
30308;DHT22;17114;52.314;8.910;2022-08-01T16:25:40;22.80;99.90
30308;DHT22;17114;52.314;8.910;2022-08-01T16:28:07;22.90;99.90
30308;DHT22;17114;52.314;8.910;2022-08-01T16:30:36;22.80;99.90
30308;DHT22;17114;52.314;8.910;2022-08-01T16:33:08;22.50;99.90
30308;DHT22;17114;52.314;8.910;2022-08-01T16:35:56;22.30;99.90
30308;DHT22;17114;52.314;8.910;2022-08-01T16:38:24;22.30;99.90
30308;DHT22;17114;52.314;8.910;2022-08-01T16:40:51;22.30;99.90
30308;DHT22;17114;52.314;8.910;2022-08-01T16:43:21;22.40;99.90
30308;DHT22;17114;52.314;8.910;2022-08-01T16:45:49;22.40;99.90
30308;DHT22;17114;52.314;8.910;2022-08-01T16:48:16;22.50;99.90
30308;DHT22;17114;52.314;8.910;2022-08-01T16:50:48;22.50;99.90
30308;DHT22;17114;52.314;8.910;2022-08-01T16:53:20;22.40;99.90
30308;DHT22;17114;52.314;8.910;2022-08-01T16:55:48;22.30;99.90